Arnoldsburg, West Virginia
Current Conditions -  °F | °C
As of 12:54 PM on Thursday 23 Oct 2014 (Local Time) from KCRW Reporting Station
Broken Clouds Broken Clouds  
Wind Chill: 55°   Ceiling: 2300
Heat Index: 55°   Visibility: 10mi
Dew Point: 43°   Wind: 3mph
Humidity: 64%   Direction: NA
Pressure: 30.19"   Gusts: NA
Location:  38.79°N, 81.13°W
Report Text: KCRW 231654Z VRB03KT 10SM BKN023 13/06 A3019 RMK AO2 SLP222 T01280061
Loading
Personal Weather Stations






























Interactive Weather Map
Tropical Storm Tracking
New forecast layout! Learn more

10-Day Weather Forecast

Advertisements
Track Severe Weather on mobile